Time;durP1;ratioP1;P1;durP2;ratioP2;P2;SDS_P1;SDS_P2;PMS_P1;PMS_P2;Temp;Humidity;BMP_temperature;BMP_pressure;BME280_temperature;BME280_humidity;BME280_pressure;Samples;Min_cycle;Max_cycle;Signal;HPM_P1;HPM_P2
2022/06/16 00:02:23;;;;;;;0.57;0.30;;;;;;;15.22;60.90;101906.13;10499650;28;20102;-73
2022/06/16 00:07:25;;;;;;;1.30;0.43;;;;;;;15.08;60.91;101895.41;10552104;28;20043;-73
2022/06/16 00:12:26;;;;;;;0.22;0.22;;;;;;;15.11;61.10;101877.34;10523718;28;20036;-74
2022/06/16 00:17:28;;;;;;;0.98;0.45;;;;;;;14.94;62.00;101882.16;10540719;28;20063;-73
2022/06/16 00:22:32;;;;;;;0.30;0.28;;;;;;;14.87;61.65;101888.88;10547835;28;20044;-73
2022/06/16 00:27:33;;;;;;;0.40;0.20;;;;;;;14.93;62.70;101892.50;10527265;28;20108;-74
2022/06/16 00:32:41;;;;;;;0.60;0.60;;;;;;;14.94;62.31;101895.13;10549231;28;20070;-73
2022/06/16 00:37:42;;;;;;;2.10;0.35;;;;;;;14.99;61.91;101892.63;10540576;28;20506;-74
2022/06/16 00:42:45;;;;;;;0.28;0.10;;;;;;;14.96;62.40;101889.94;10539310;28;20040;-73
2022/06/16 00:47:46;;;;;;;0.10;0.10;;;;;;;14.88;62.88;101887.19;10535294;28;20040;-73
2022/06/16 00:52:48;;;;;;;0.10;0.08;;;;;;;14.75;63.64;101888.59;10524502;28;20062;-73
2022/06/16 00:57:50;;;;;;;0.05;0.05;;;;;;;14.67;63.31;101885.81;10510724;28;20043;-74
2022/06/16 01:02:52;;;;;;;0.00;0.00;;;;;;;14.83;62.76;101897.47;10520173;28;20036;-73
2022/06/16 01:07:56;;;;;;;0.10;0.00;;;;;;;14.70;63.23;101905.78;10548266;28;20048;-73
2022/06/16 01:18:53;;;;;;;0.52;0.40;;;;;;;14.48;64.21;101899.13;10554437;28;20047;-74
2022/06/16 01:24:13;;;;;;;0.85;0.38;;;;;;;14.39;64.69;101899.78;10538745;28;20039;-74
2022/06/16 01:29:21;;;;;;;0.70;0.20;;;;;;;14.47;64.35;101893.06;10506376;28;20055;-73
2022/06/16 01:34:34;;;;;;;0.00;0.00;;;;;;;14.39;64.12;101912.75;10528580;28;20044;-73
2022/06/16 01:39:48;;;;;;;0.10;0.10;;;;;;;14.30;64.50;101918.53;10516018;28;20040;-74
2022/06/16 01:45:15;;;;;;;0.38;0.38;;;;;;;14.27;63.81;101906.38;10526352;28;20098;-73
2022/06/16 01:50:24;;;;;;;0.22;0.10;;;;;;;14.16;64.13;101913.00;10550425;28;20036;-74
2022/06/16 01:55:31;;;;;;;0.00;0.00;;;;;;;14.02;65.16;101929.88;10507410;28;20574;-74
2022/06/16 02:00:40;;;;;;;0.52;0.45;;;;;;;13.93;66.38;101931.38;10527646;28;20043;-74
2022/06/16 02:05:48;;;;;;;0.80;0.28;;;;;;;13.40;68.88;101941.00;10518442;28;20070;-74
2022/06/16 02:10:57;;;;;;;2.40;0.60;;;;;;;13.25;69.90;101944.84;10550506;28;20060;-74
2022/06/16 02:16:08;;;;;;;4.03;0.20;;;;;;;13.24;69.68;101935.31;10531067;28;20044;-73
2022/06/16 02:21:22;;;;;;;0.00;0.00;;;;;;;13.28;69.78;101934.59;10525560;28;20117;-74
2022/06/16 02:26:26;;;;;;;0.05;0.05;;;;;;;13.08;68.70;101930.47;10533372;28;20047;-74
2022/06/16 02:31:46;;;;;;;0.40;0.10;;;;;;;13.29;68.98;101931.16;10524596;28;20044;-73
2022/06/16 02:37:05;;;;;;;0.05;0.05;;;;;;;12.50;72.03;101935.47;10527002;28;20052;-74
2022/06/16 02:42:16;;;;;;;0.20;0.17;;;;;;;12.33;73.11;101932.31;10524584;28;20128;-74
2022/06/16 02:58:43;;;;;;;0.30;0.22;;;;;;;11.71;76.01;101956.75;10527980;28;20453;-74
2022/06/16 03:04:03;;;;;;;0.28;0.22;;;;;;;11.59;76.89;101970.06;10541903;28;20035;-74
2022/06/16 03:09:08;;;;;;;1.13;0.38;;;;;;;11.62;77.08;101971.88;10534368;28;20468;-73
2022/06/16 03:14:10;;;;;;;0.40;0.20;;;;;;;11.67;76.45;101980.66;10525412;28;20048;-73
2022/06/16 03:19:18;;;;;;;0.13;0.13;;;;;;;11.62;76.72;101992.53;10518654;28;20036;-73
2022/06/16 03:24:21;;;;;;;0.20;0.15;;;;;;;11.62;77.09;101989.94;10523407;28;20048;-73
2022/06/16 03:29:23;;;;;;;0.05;0.05;;;;;;;11.34;78.23;102006.03;10530553;28;20036;-74
2022/06/16 03:34:26;;;;;;;0.10;0.10;;;;;;;11.38;78.93;101997.59;10523149;28;20051;-73
2022/06/16 03:39:31;;;;;;;0.30;0.25;;;;;;;11.46;78.48;101990.16;10523520;28;20098;-74
2022/06/16 03:44:33;;;;;;;0.00;0.00;;;;;;;11.48;78.25;102004.00;10541894;28;20047;-74
2022/06/16 03:49:35;;;;;;;0.20;0.10;;;;;;;11.58;78.10;102013.84;10545912;28;20032;-74
2022/06/16 03:54:38;;;;;;;0.90;0.35;;;;;;;11.70;78.17;102027.28;10525716;28;20406;-73
2022/06/16 03:59:43;;;;;;;4.18;0.10;;;;;;;11.75;77.69;102030.91;10521326;28;20036;-74
2022/06/16 04:04:55;;;;;;;0.20;0.20;;;;;;;11.90;77.46;102024.56;10513038;28;20067;-73
2022/06/16 04:09:57;;;;;;;0.43;0.22;;;;;;;12.04;77.41;102017.41;10521165;28;20451;-73
2022/06/16 04:14:59;;;;;;;1.08;0.38;;;;;;;12.28;77.15;102030.34;10521464;28;20058;-73
2022/06/16 04:20:14;;;;;;;0.03;0.03;;;;;;;12.60;76.21;102034.91;10518644;28;20058;-81
2022/06/16 04:25:33;;;;;;;0.90;0.35;;;;;;;12.81;74.38;102042.56;10511862;28;20052;-80
2022/06/16 04:30:40;;;;;;;0.68;0.38;;;;;;;12.69;75.10;102051.66;10501650;28;20048;-80
2022/06/16 04:35:42;;;;;;;1.95;0.20;;;;;;;12.80;75.26;102051.13;10533630;28;20040;-80
2022/06/16 04:40:46;;;;;;;0.20;0.20;;;;;;;12.97;75.75;102060.38;10517136;28;20040;-81
2022/06/16 04:45:52;;;;;;;0.30;0.30;;;;;;;13.08;74.97;102054.66;10518827;28;20048;-81
2022/06/16 04:50:57;;;;;;;15.40;0.95;;;;;;;12.92;75.14;102064.47;10519408;28;20036;-81
2022/06/16 04:56:02;;;;;;;0.00;0.00;;;;;;;13.15;75.79;102062.69;10521271;28;20522;-81
2022/06/16 05:01:22;;;;;;;0.25;0.22;;;;;;;13.29;75.85;102055.38;10573522;28;20044;-81
2022/06/16 05:06:45;;;;;;;0.20;0.20;;;;;;;13.55;75.72;102055.41;10567528;28;20075;-81
2022/06/16 05:12:10;;;;;;;0.10;0.10;;;;;;;13.63;75.60;102060.81;10563183;28;20667;-81
2022/06/16 05:17:24;;;;;;;1.35;0.65;;;;;;;13.69;75.54;102067.91;10520466;28;20489;-81
2022/06/16 05:22:29;;;;;;;1.42;1.00;;;;;;;13.59;76.52;102075.38;10523941;28;20495;-81
2022/06/16 05:27:48;;;;;;;0.20;0.20;;;;;;;13.77;76.51;102074.22;10511473;28;20438;-80
2022/06/16 05:33:16;;;;;;;0.20;0.20;;;;;;;14.19;75.92;102096.22;10531789;28;20052;-81
2022/06/16 05:38:31;;;;;;;0.40;0.20;;;;;;;14.47;75.64;102100.50;10516273;28;20054;-81
2022/06/16 05:43:52;;;;;;;0.00;0.00;;;;;;;14.40;74.93;102098.56;10529829;28;20131;-81
2022/06/16 05:49:23;;;;;;;0.65;0.30;;;;;;;14.41;74.68;102100.31;10512142;28;20056;-81
2022/06/16 05:54:28;;;;;;;0.13;0.13;;;;;;;14.38;73.60;102113.19;10528245;28;20048;-81
2022/06/16 05:59:30;;;;;;;0.47;0.35;;;;;;;14.70;73.58;102124.53;10515493;28;20056;-80
2022/06/16 06:04:33;;;;;;;0.28;0.10;;;;;;;14.61;72.92;102126.81;10503775;28;20074;-80
2022/06/16 06:20:20;;;;;;;1.17;0.38;;;;;;;15.58;70.14;102138.09;10532671;28;20465;-81
2022/06/16 06:25:24;;;;;;;0.20;0.20;;;;;;;15.54;67.70;102140.59;10512004;28;20052;-81
2022/06/16 06:30:30;;;;;;;0.25;0.20;;;;;;;15.55;66.71;102144.09;10521215;28;20479;-81
2022/06/16 06:35:34;;;;;;;0.15;0.08;;;;;;;15.75;64.89;102149.75;10525188;28;20069;-81
2022/06/16 06:40:37;;;;;;;1.10;0.65;;;;;;;15.89;64.36;102146.66;10517732;28;20101;-81
2022/06/16 06:45:38;;;;;;;0.00;0.00;;;;;;;16.35;65.00;102147.69;10524861;28;20032;-81
2022/06/16 06:50:40;;;;;;;0.45;0.45;;;;;;;16.49;62.85;102143.66;10518165;28;20044;-81
2022/06/16 06:55:46;;;;;;;0.15;0.10;;;;;;;16.69;57.86;102145.81;10518007;28;20044;-81
2022/06/16 07:00:51;;;;;;;0.10;0.10;;;;;;;17.16;57.71;102138.94;10509954;28;20051;-81
2022/06/16 07:05:53;;;;;;;0.30;0.20;;;;;;;17.31;54.27;102144.44;10518937;28;20315;-81
2022/06/16 07:10:55;;;;;;;0.38;0.38;;;;;;;18.69;54.59;102149.09;10527509;28;20057;-81
2022/06/16 07:15:57;;;;;;;0.10;0.10;;;;;;;18.30;51.31;102164.25;10536668;28;20062;-80
2022/06/16 07:21:01;;;;;;;0.15;0.13;;;;;;;18.84;51.65;102162.31;10536833;28;20035;-81
2022/06/16 07:26:03;;;;;;;0.00;0.00;;;;;;;18.89;47.67;102164.97;10537673;28;20044;-80
2022/06/16 07:31:09;;;;;;;0.00;0.00;;;;;;;19.22;47.86;102158.41;10537528;28;20039;-81
2022/06/16 07:36:31;;;;;;;0.55;0.35;;;;;;;19.28;46.35;102168.91;10533010;28;20143;-81
2022/06/16 07:41:35;;;;;;;0.10;0.10;;;;;;;19.31;45.10;102179.41;10532031;28;20493;-80
2022/06/16 07:46:39;;;;;;;0.17;0.08;;;;;;;19.68;44.41;102178.00;10517233;28;20059;-81
2022/06/16 07:51:42;;;;;;;0.10;0.05;;;;;;;20.72;44.42;102176.91;10535312;28;20067;-81
2022/06/16 07:56:45;;;;;;;0.00;0.00;;;;;;;20.06;43.92;102180.06;10536890;28;20376;-81
2022/06/16 08:01:47;;;;;;;0.30;0.30;;;;;;;20.66;44.09;102188.22;10535160;28;20093;-80
2022/06/16 08:06:50;;;;;;;0.32;0.10;;;;;;;21.24;42.84;102186.69;10520369;28;20043;-80
2022/06/16 08:12:03;;;;;;;0.00;0.00;;;;;;;20.60;40.12;102186.44;10538306;28;20048;-80
2022/06/16 08:17:10;;;;;;;0.05;0.05;;;;;;;21.00;38.55;102182.25;10532963;28;20040;-80
2022/06/16 08:22:13;;;;;;;0.00;0.00;;;;;;;20.96;39.56;102177.91;10517061;28;20076;-81
2022/06/16 08:27:18;;;;;;;0.00;0.00;;;;;;;21.11;40.10;102184.91;10534594;28;20069;-80
2022/06/16 08:32:22;;;;;;;0.00;0.00;;;;;;;21.47;39.12;102191.06;10537210;28;20046;-80
2022/06/16 08:37:24;;;;;;;0.28;0.10;;;;;;;21.50;38.79;102205.06;10540024;28;20044;-80
2022/06/16 08:42:39;;;;;;;0.15;0.00;;;;;;;22.58;39.26;102190.13;10531280;28;20048;-80
2022/06/16 08:47:48;;;;;;;0.00;0.00;;;;;;;22.30;37.48;102204.16;10532670;28;20129;-80
2022/06/16 08:53:11;;;;;;;0.20;0.10;;;;;;;21.40;38.05;102190.22;10533485;28;20028;-80
2022/06/16 08:58:24;;;;;;;0.22;0.00;;;;;;;22.39;37.04;102182.28;10530546;28;20105;-81
2022/06/16 09:03:39;;;;;;;0.10;0.10;;;;;;;21.80;37.26;102203.34;10510323;28;20041;-81
2022/06/16 09:08:48;;;;;;;0.10;0.10;;;;;;;23.24;36.39;102199.44;10528034;28;20045;-80
2022/06/16 09:14:05;;;;;;;0.00;0.00;;;;;;;23.22;37.61;102199.47;10533601;28;20044;-81
2022/06/16 09:19:39;;;;;;;0.00;0.00;;;;;;;23.82;36.22;102202.50;10514471;28;20050;-80
2022/06/16 09:24:59;;;;;;;0.22;0.10;;;;;;;22.95;36.66;102205.72;10532855;28;20449;-80
2022/06/16 09:30:13;;;;;;;0.00;0.00;;;;;;;23.34;35.27;102221.28;10526832;28;20051;-80
2022/06/16 09:35:25;;;;;;;0.00;0.00;;;;;;;23.36;35.75;102225.66;10542245;28;20048;-80
2022/06/16 09:40:35;;;;;;;0.38;0.10;;;;;;;23.31;36.37;102227.44;10540239;28;20101;-81
2022/06/16 09:45:39;;;;;;;;;;;;;;;23.94;36.55;102227.88;10537119;28;20044;-80
2022/06/16 09:50:59;;;;;;;0.03;0.03;;;;;;;23.71;35.54;102221.00;10537874;28;19931;-81
2022/06/16 09:56:07;;;;;;;0.20;0.20;;;;;;;23.70;37.25;102214.88;10540763;28;20044;-81
2022/06/16 10:01:13;;;;;;;0.08;0.08;;;;;;;23.65;37.17;102227.19;10536015;28;20040;-80
2022/06/16 10:06:22;;;;;;;0.15;0.15;;;;;;;24.21;35.89;102232.84;10538044;28;20051;-80
2022/06/16 10:11:55;;;;;;;0.10;0.10;;;;;;;24.55;35.23;102236.88;10541092;28;20046;-80
2022/06/16 10:17:05;;;;;;;0.20;0.20;;;;;;;24.82;37.64;102256.81;10535478;28;20044;-81
2022/06/16 10:22:08;;;;;;;0.20;0.10;;;;;;;24.64;36.50;102257.88;10543169;28;20044;-81
2022/06/16 10:27:14;;;;;;;0.10;0.10;;;;;;;24.89;34.99;102256.72;10538918;28;20121;-81
2022/06/16 10:32:17;;;;;;;0.10;0.10;;;;;;;24.50;39.19;102270.31;10545964;28;20039;-80
2022/06/16 10:37:23;;;;;;;0.00;0.00;;;;;;;24.96;35.64;102264.53;10537313;28;20047;-80
2022/06/16 10:42:32;;;;;;;0.20;0.10;;;;;;;24.58;35.46;102265.84;10538337;28;20101;-81
2022/06/16 10:47:53;;;;;;;0.40;0.40;;;;;;;24.47;35.31;102259.81;10521306;28;20555;-81
2022/06/16 10:53:01;;;;;;;0.10;0.10;;;;;;;24.58;36.06;102268.47;10535677;28;20479;-81
2022/06/16 10:58:16;;;;;;;0.00;0.00;;;;;;;24.98;34.99;102260.09;10536914;28;20387;-80
2022/06/16 11:03:18;;;;;;;0.05;0.03;;;;;;;24.07;35.96;102261.97;10514693;28;20109;-80
2022/06/16 11:08:25;;;;;;;0.20;0.10;;;;;;;24.68;36.96;102251.72;10532695;28;20044;-80
2022/06/16 11:13:53;;;;;;;0.10;0.10;;;;;;;25.58;35.84;102247.00;10518478;28;20391;-80
2022/06/16 11:18:58;;;;;;;0.00;0.00;;;;;;;24.91;36.13;102255.81;10534811;28;20040;-80
2022/06/16 11:24:04;;;;;;;0.40;0.40;;;;;;;24.82;36.11;102241.00;10524907;28;20040;-81
2022/06/16 11:29:12;;;;;;;0.15;0.15;;;;;;;24.57;37.06;102237.75;10518525;28;20411;-79
2022/06/16 11:34:19;;;;;;;0.52;0.52;;;;;;;25.04;35.32;102243.34;10539715;28;20043;-81
2022/06/16 11:39:54;;;;;;;0.20;0.13;;;;;;;25.52;35.21;102240.03;10532212;28;20064;-80
2022/06/16 11:45:12;;;;;;;0.07;0.07;;;;;;;24.75;35.43;102249.00;10517901;28;20407;-80
2022/06/16 11:50:34;;;;;;;0.03;0.00;;;;;;;24.99;35.02;102255.72;10535720;28;20502;-81
2022/06/16 11:55:40;;;;;;;0.00;0.00;;;;;;;25.43;35.20;102254.25;10518685;28;20047;-80
2022/06/16 12:00:47;;;;;;;0.20;0.08;;;;;;;25.52;34.50;102262.94;10535698;28;20089;-80
2022/06/16 12:06:07;;;;;;;0.10;0.10;;;;;;;25.13;34.52;102247.63;10536648;28;20086;-81
2022/06/16 12:11:24;;;;;;;0.43;0.20;;;;;;;24.96;35.91;102251.38;10536285;28;20058;-80
2022/06/16 12:16:56;;;;;;;1.45;0.20;;;;;;;24.60;35.37;102239.47;10518564;28;20138;-81
2022/06/16 12:22:17;;;;;;;0.40;0.30;;;;;;;24.82;35.53;102245.41;10510180;28;20502;-80
2022/06/16 12:27:23;;;;;;;0.73;0.50;;;;;;;24.85;34.79;102242.72;10538088;28;20036;-80
2022/06/16 12:32:39;;;;;;;4.00;0.20;;;;;;;25.60;34.70;102240.78;10536061;28;20044;-81
2022/06/16 12:37:47;;;;;;;0.22;0.10;;;;;;;24.97;34.05;102241.69;10511948;28;20059;-81
2022/06/16 12:42:55;;;;;;;0.38;0.30;;;;;;;25.82;36.81;102224.59;10499022;28;20115;-80
2022/06/16 12:48:03;;;;;;;0.08;0.08;;;;;;;25.59;34.53;102239.03;10545496;28;20066;-79
2022/06/16 12:53:13;;;;;;;0.25;0.10;;;;;;;25.88;33.94;102234.19;10526894;28;20498;-80
2022/06/16 12:58:19;;;;;;;0.15;0.15;;;;;;;25.42;36.17;102241.09;10509992;28;20051;-80
2022/06/16 13:03:54;;;;;;;0.10;0.10;;;;;;;24.75;36.69;102249.00;10512642;28;20410;-80
2022/06/16 13:09:04;;;;;;;0.32;0.30;;;;;;;26.24;38.52;102237.09;10514482;28;20040;-81
2022/06/16 13:14:14;;;;;;;1.65;0.22;;;;;;;26.07;34.31;102240.00;10524696;28;20067;-79
2022/06/16 13:19:23;;;;;;;0.17;0.17;;;;;;;25.78;34.90;102238.75;10537901;28;20098;-80
2022/06/16 13:24:42;;;;;;;1.48;0.80;;;;;;;26.20;34.46;102244.19;10545212;28;20089;-79
2022/06/16 13:29:50;;;;;;;0.20;0.10;;;;;;;26.31;35.44;102254.56;10538984;28;20044;-79
2022/06/16 13:34:55;;;;;;;0.38;0.20;;;;;;;25.78;33.75;102257.22;10552068;28;20503;-79
2022/06/16 13:40:06;;;;;;;0.70;0.30;;;;;;;25.50;33.52;102270.88;10542595;28;20047;-79
2022/06/16 13:45:10;;;;;;;0.30;0.10;;;;;;;25.09;36.21;102274.91;10544018;28;20044;-79
2022/06/16 13:50:40;;;;;;;0.10;0.10;;;;;;;25.58;35.04;102281.28;10520312;28;20418;-79
2022/06/16 13:55:53;;;;;;;0.10;0.10;;;;;;;25.63;36.04;102285.63;10541745;28;20028;-79
2022/06/16 14:01:14;;;;;;;0.28;0.28;;;;;;;24.54;37.09;102286.09;10521296;28;20040;-81
2022/06/16 14:06:22;;;;;;;0.17;0.13;;;;;;;25.02;36.58;102272.38;10539352;28;20046;-81
2022/06/16 14:11:32;;;;;;;0.10;0.10;;;;;;;24.50;37.52;102287.00;10544647;28;20082;-82
2022/06/16 14:17:01;;;;;;;0.00;0.00;;;;;;;25.08;37.95;102275.81;10534138;28;20044;-81
2022/06/16 14:22:19;;;;;;;0.52;0.30;;;;;;;25.52;36.52;102261.16;10544158;28;20499;-80
2022/06/16 14:27:31;;;;;;;0.20;0.10;;;;;;;25.44;36.31;102263.91;10531204;28;20093;-82
2022/06/16 14:32:44;;;;;;;0.30;0.25;;;;;;;25.30;35.76;102268.50;10524086;28;20073;-81
2022/06/16 14:37:52;;;;;;;0.47;0.20;;;;;;;25.39;35.22;102260.47;10536497;28;20068;-80
2022/06/16 14:42:55;;;;;;;0.68;0.22;;;;;;;25.28;35.80;102272.91;10537642;28;20414;-81
2022/06/16 14:48:06;;;;;;;2.33;0.63;;;;;;;25.53;37.32;102265.53;10538204;28;20047;-81
2022/06/16 14:53:17;;;;;;;0.13;0.13;;;;;;;25.38;33.93;102255.16;10518661;28;20544;-81
2022/06/16 14:58:20;;;;;;;0.75;0.47;;;;;;;25.21;35.34;102248.38;10511224;28;20441;-80
2022/06/16 15:03:26;;;;;;;0.10;0.10;;;;;;;25.27;37.78;102236.88;10535660;28;20052;-80
2022/06/16 15:08:29;;;;;;;0.63;0.20;;;;;;;24.79;38.21;102234.88;10547912;28;20101;-81
2022/06/16 15:13:37;;;;;;;0.20;0.20;;;;;;;23.80;37.98;102246.38;10507126;28;20054;-80
2022/06/16 15:18:39;;;;;;;0.00;0.00;;;;;;;24.34;38.59;102228.34;10555571;28;20069;-80
2022/06/16 15:23:41;;;;;;;0.30;0.30;;;;;;;25.05;38.85;102237.19;10558006;28;20044;-80
2022/06/16 15:28:54;;;;;;;0.25;0.15;;;;;;;24.54;35.82;102236.03;10554789;28;20058;-79
2022/06/16 15:39:30;;;;;;;0.03;0.03;;;;;;;25.00;37.28;102229.31;10565219;28;20044;-80
2022/06/16 15:44:48;;;;;;;0.38;0.20;;;;;;;24.63;39.29;102216.59;10568228;28;20040;-80
2022/06/16 15:50:13;;;;;;;0.45;0.20;;;;;;;24.75;38.67;102228.78;10556446;28;20113;-80
2022/06/16 15:55:27;;;;;;;0.00;0.00;;;;;;;24.42;36.77;102216.84;10516623;28;20484;-81
2022/06/16 16:00:31;;;;;;;0.25;0.10;;;;;;;24.45;37.23;102228.22;10531427;28;20097;-81
2022/06/16 16:05:37;;;;;;;0.10;0.05;;;;;;;24.94;37.30;102229.41;10533338;28;20471;-80
2022/06/16 16:10:43;;;;;;;0.10;0.10;;;;;;;24.26;37.57;102229.31;10532428;28;20376;-82
2022/06/16 16:16:15;;;;;;;0.25;0.20;;;;;;;24.10;38.46;102228.59;10534102;28;20047;-82
2022/06/16 16:21:16;;;;;;;0.10;0.10;;;;;;;23.83;38.40;102238.47;10524757;28;20059;-82
2022/06/16 16:26:21;;;;;;;0.00;0.00;;;;;;;24.20;38.74;102225.84;10531501;28;20131;-81
2022/06/16 16:31:27;;;;;;;0.38;0.15;;;;;;;23.92;37.80;102219.97;10516439;28;20040;-80
2022/06/16 16:36:33;;;;;;;0.08;0.08;;;;;;;24.10;39.08;102221.56;10514732;28;20431;-81
2022/06/16 16:47:13;;;;;;;0.13;0.13;;;;;;;23.98;39.68;102225.19;10532451;28;20127;-81
2022/06/16 16:52:29;;;;;;;0.08;0.08;;;;;;;24.11;40.79;102225.06;10531272;28;20050;-81
2022/06/16 16:57:33;;;;;;;0.20;0.10;;;;;;;23.90;40.65;102227.84;10537801;28;20123;-81
2022/06/16 17:02:34;;;;;;;0.30;0.30;;;;;;;23.75;40.67;102235.91;10532338;28;20490;-81
2022/06/16 17:07:39;;;;;;;0.40;0.40;;;;;;;23.75;41.20;102223.59;10511938;28;20044;-81
2022/06/16 17:12:45;;;;;;;0.10;0.10;;;;;;;23.67;41.96;102219.31;10531687;28;20051;-82
2022/06/16 17:17:49;;;;;;;0.10;0.10;;;;;;;23.60;41.12;102205.31;10517496;28;20048;-82
2022/06/16 17:22:51;;;;;;;0.08;0.08;;;;;;;23.57;43.69;102202.69;10531968;28;20032;-81
2022/06/16 17:27:52;;;;;;;0.05;0.05;;;;;;;23.44;41.94;102208.06;10534574;28;20533;-81
2022/06/16 17:32:56;;;;;;;0.43;0.20;;;;;;;23.44;43.22;102197.53;10520834;28;20403;-81
2022/06/16 17:37:57;;;;;;;0.25;0.20;;;;;;;23.40;42.86;102222.13;10534471;28;20065;-81
2022/06/16 17:43:00;;;;;;;1.17;0.30;;;;;;;23.48;42.52;102229.09;10533302;28;20032;-81
2022/06/16 17:48:05;;;;;;;0.43;0.28;;;;;;;23.61;43.02;102244.75;10519609;28;20051;-81
2022/06/16 18:10:36;;;;;;;0.00;0.00;;;;;;;23.18;44.47;102241.53;10463676;28;20426;-82
2022/06/16 18:15:38;;;;;;;0.08;0.08;;;;;;;23.01;44.59;102244.25;10540115;28;20051;-82
2022/06/16 18:20:40;;;;;;;0.10;0.10;;;;;;;23.13;44.63;102238.91;10539398;28;20051;-82
2022/06/16 18:25:47;;;;;;;0.00;0.00;;;;;;;23.25;45.42;102228.34;10521934;28;20115;-81
2022/06/16 18:30:49;;;;;;;0.20;0.17;;;;;;;22.99;44.13;102231.09;10539693;28;20554;-81
2022/06/16 18:35:50;;;;;;;0.40;0.30;;;;;;;23.10;44.16;102245.06;10521877;28;20040;-81
2022/06/16 18:40:52;;;;;;;0.40;0.40;;;;;;;22.95;45.27;102247.75;10538889;28;20114;-81
2022/06/16 18:45:54;;;;;;;0.13;0.13;;;;;;;22.51;45.79;102249.66;10538770;28;20040;-82
2022/06/16 18:50:56;;;;;;;0.45;0.10;;;;;;;22.33;47.29;102248.81;10544693;28;20108;-83
2022/06/16 18:55:57;;;;;;;0.10;0.10;;;;;;;22.04;47.30;102246.19;10541821;28;20102;-81
2022/06/16 19:00:59;;;;;;;0.10;0.10;;;;;;;22.14;50.13;102229.59;10541733;28;20065;-82
2022/06/16 19:06:01;;;;;;;0.40;0.22;;;;;;;21.77;49.88;102232.22;10538472;28;20040;-82
2022/06/16 19:11:03;;;;;;;0.10;0.10;;;;;;;21.44;50.10;102231.28;10544643;28;20041;-81
2022/06/16 19:16:07;;;;;;;0.00;0.00;;;;;;;21.32;50.35;102229.50;10523871;28;20055;-81
2022/06/16 19:21:21;;;;;;;0.10;0.10;;;;;;;20.89;52.77;102247.72;10540169;28;20123;-76
2022/06/16 19:26:25;;;;;;;0.08;0.08;;;;;;;21.10;50.96;102235.56;10532218;28;20109;-75
2022/06/16 19:31:30;;;;;;;0.10;0.10;;;;;;;20.96;52.35;102238.16;10519965;28;20243;-75
2022/06/16 19:36:35;;;;;;;0.40;0.40;;;;;;;20.68;54.50;102237.97;10538038;28;20051;-76
2022/06/16 19:41:50;;;;;;;0.15;0.13;;;;;;;20.41;57.68;102255.28;10542190;28;20533;-76
2022/06/16 19:52:19;;;;;;;0.10;0.10;;;;;;;20.06;58.49;102255.91;10539842;28;20414;-75
2022/06/16 19:57:21;;;;;;;0.43;0.20;;;;;;;19.81;57.18;102266.97;10536078;28;20692;-76
2022/06/16 20:02:22;;;;;;;0.20;0.10;;;;;;;19.72;56.84;102273.88;10522536;28;20051;-76
2022/06/16 20:07:29;;;;;;;0.20;0.10;;;;;;;19.54;58.23;102279.78;10538180;28;20404;-76
2022/06/16 20:12:31;;;;;;;0.38;0.20;;;;;;;19.31;62.48;102293.47;10534367;28;20487;-75
2022/06/16 20:17:33;;;;;;;0.35;0.10;;;;;;;19.07;63.33;102304.50;10535815;28;20132;-76
2022/06/16 20:22:37;;;;;;;0.13;0.10;;;;;;;18.99;60.30;102318.34;10519383;28;20436;-75
2022/06/16 20:27:41;;;;;;;0.90;0.30;;;;;;;18.63;62.40;102314.34;10534126;28;20093;-76
2022/06/16 20:32:43;;;;;;;0.10;0.10;;;;;;;18.47;64.84;102317.56;10521678;28;20071;-76
2022/06/16 20:37:44;;;;;;;0.00;0.00;;;;;;;18.42;65.19;102304.44;10536094;28;20456;-76
2022/06/16 20:43:00;;;;;;;0.55;0.20;;;;;;;17.98;67.46;102302.88;10534920;28;20048;-76
2022/06/16 20:48:04;;;;;;;0.43;0.20;;;;;;;17.97;67.45;102302.81;10529801;28;20109;-76
2022/06/16 20:53:10;;;;;;;0.30;0.10;;;;;;;17.72;68.72;102321.47;10534087;28;20047;-75
2022/06/16 21:03:32;;;;;;;0.10;0.05;;;;;;;17.56;69.80;102335.06;10532075;28;20046;-76
2022/06/16 21:08:34;;;;;;;0.10;0.10;;;;;;;17.04;71.38;102348.75;10514440;28;20048;-76
2022/06/16 21:13:36;;;;;;;0.00;0.00;;;;;;;17.04;72.43;102361.75;10533706;28;20104;-76
2022/06/16 21:18:37;;;;;;;0.30;0.30;;;;;;;16.94;72.18;102344.19;10534747;28;20048;-76
2022/06/16 21:23:39;;;;;;;0.28;0.20;;;;;;;16.82;72.32;102339.56;10538882;28;20089;-75
2022/06/16 21:28:41;;;;;;;0.90;0.55;;;;;;;16.37;75.58;102346.28;10518141;28;20153;-76
2022/06/16 21:33:44;;;;;;;0.20;0.20;;;;;;;16.47;75.23;102348.28;10530303;28;20048;-76
2022/06/16 21:38:46;;;;;;;0.30;0.20;;;;;;;16.59;74.05;102336.38;10505223;28;20465;-76
2022/06/16 21:43:49;;;;;;;0.75;0.47;;;;;;;16.33;75.03;102328.84;10522207;28;20036;-76
2022/06/16 21:48:59;;;;;;;0.68;0.10;;;;;;;16.41;73.96;102332.53;10541034;28;20117;-76
2022/06/16 21:54:08;;;;;;;0.30;0.30;;;;;;;16.11;76.13;102333.50;10540471;28;20170;-76
2022/06/16 21:59:13;;;;;;;0.93;0.15;;;;;;;16.13;75.95;102350.00;10521966;28;20551;-76
2022/06/16 22:04:21;;;;;;;0.10;0.10;;;;;;;16.01;76.88;102352.28;10548548;28;20048;-75
2022/06/16 22:09:23;;;;;;;1.35;0.30;;;;;;;15.88;77.40;102352.81;10539820;28;20122;-76
2022/06/16 22:19:45;;;;;;;0.10;0.10;;;;;;;15.50;79.13;102359.53;10524224;28;20056;-76
2022/06/16 22:24:48;;;;;;;0.20;0.10;;;;;;;15.51;79.15;102358.72;10539465;28;20307;-76
2022/06/16 22:29:50;;;;;;;0.15;0.15;;;;;;;15.43;79.01;102352.41;10538910;28;20130;-75
2022/06/16 22:34:54;;;;;;;0.20;0.20;;;;;;;15.17;80.71;102364.63;10538472;28;20039;-75
2022/06/16 22:45:16;;;;;;;;;;;;;;;15.21;80.38;102369.94;10531654;28;20044;-75
2022/06/16 22:50:21;;;;;;;0.00;0.00;;;;;;;14.94;80.56;102366.50;10537821;28;20272;-76
2022/06/16 23:00:44;;;;;;;0.52;0.45;;;;;;;14.88;81.53;102364.59;10537549;28;20487;-75
2022/06/16 23:05:47;;;;;;;1.10;0.90;;;;;;;14.83;82.00;102368.75;10537759;28;20051;-75
2022/06/16 23:10:49;;;;;;;0.75;0.35;;;;;;;14.66;82.64;102381.19;10540172;28;20069;-76
2022/06/16 23:15:52;;;;;;;0.13;0.10;;;;;;;14.31;82.71;102380.84;10534277;28;20479;-75
2022/06/16 23:20:54;;;;;;;0.20;0.20;;;;;;;14.34;84.04;102396.50;10535031;28;20044;-75
2022/06/16 23:25:57;;;;;;;0.32;0.20;;;;;;;14.32;83.50;102391.28;10536824;28;20077;-76
2022/06/16 23:30:58;;;;;;;0.20;0.20;;;;;;;14.28;84.84;102389.41;10536026;28;20101;-77
2022/06/16 23:36:00;;;;;;;0.20;0.20;;;;;;;14.22;84.26;102400.44;10536688;28;20032;-77
2022/06/16 23:41:02;;;;;;;0.65;0.35;;;;;;;14.23;85.63;102404.81;10536544;28;20048;-76
2022/06/16 23:46:04;;;;;;;0.38;0.35;;;;;;;14.09;82.14;102388.75;10518016;28;20036;-77
2022/06/16 23:51:14;;;;;;;0.52;0.52;;;;;;;13.84;85.25;102381.81;10517716;28;20510;-76
2022/06/16 23:56:24;;;;;;;0.60;0.35;;;;;;;13.66;88.66;102365.63;10535913;28;20039;-76
